Terminal Aerodrome Forecast
Issued by NWS Wichita, KS

Home | Current Version | Previous Version | Text Only | Print | Product List | Glossary On
Versions: 1 2 3 4 5 6 7 8 9 10 11 12 13 14 15 16 17 18 19 20 21 22 23 24 25
377
FTUS43 KICT 202141 AAD
TAFICT
TAF AMD
KICT 202141Z 2022/2118 19008KT P6SM BKN025
     FM210000 22008KT P6SM FEW035 FEW250
     FM211000 25006KT 4SM BR SCT250
     FM211500 VRB03KT P6SM SCT250=

USA.gov is the U.S. government's official web portal to all federal, state and local government web resources and services.